Time;durP1;ratioP1;P1;durP2;ratioP2;P2;SDS_P1;SDS_P2;PMS_P1;PMS_P2;Temp;Humidity;BMP_temperature;BMP_pressure;BME280_temperature;BME280_humidity;BME280_pressure;Samples;Min_cycle;Max_cycle;Signal;HPM_P1;HPM_P2
2024/03/11 00:00:45;;;;;;;4.60;4.30;;;6.50;99.90;;;7.23;100.00;96304.44;10438569;28;20220;-65
2024/03/11 00:05:52;;;;;;;4.37;3.97;;;6.60;99.90;;;7.26;100.00;96310.47;10423177;28;20509;-65
2024/03/11 00:10:59;;;;;;;3.83;3.53;;;6.60;99.90;;;7.23;100.00;96321.38;10425432;28;20221;-65
2024/03/11 00:16:06;;;;;;;4.00;3.70;;;6.50;99.90;;;7.08;100.00;96321.56;10425203;28;20712;-66
2024/03/11 00:21:11;;;;;;;4.20;3.90;;;6.50;99.90;;;7.06;100.00;96333.31;10424208;28;20905;-66
2024/03/11 00:26:15;;;;;;;3.70;3.50;;;6.40;99.90;;;7.09;100.00;96328.38;10423157;28;20233;-65
2024/03/11 00:31:21;;;;;;;4.20;3.90;;;6.40;99.90;;;7.06;100.00;96338.38;10442830;28;20229;-66
2024/03/11 00:36:24;;;;;;;3.37;3.17;;;6.40;99.90;;;7.18;100.00;96348.22;10420170;28;20248;-66
2024/03/11 00:41:27;;;;;;;3.50;3.30;;;6.50;99.90;;;7.19;100.00;96350.84;10422220;28;20344;-66
2024/03/11 00:46:31;;;;;;;4.53;4.13;;;6.50;99.90;;;7.25;100.00;96355.34;10421455;28;20420;-66
2024/03/11 00:51:35;;;;;;;3.90;3.60;;;6.50;99.90;;;7.27;100.00;96363.03;10419873;28;20244;-66
2024/03/11 00:56:38;;;;;;;4.03;3.73;;;6.50;99.90;;;7.19;100.00;96373.72;10423409;28;20726;-66
2024/03/11 01:01:43;;;;;;;4.37;4.07;;;6.50;99.90;;;7.21;100.00;96372.13;10437287;28;20229;-66
2024/03/11 01:06:46;;;;;;;4.20;3.90;;;6.50;99.90;;;7.22;100.00;96373.00;10423270;28;20462;-66
2024/03/11 01:12:07;;;;;;;4.60;4.20;;;6.50;99.90;;;7.21;100.00;96373.78;10419841;28;20243;-66
2024/03/11 01:17:11;;;;;;;4.90;4.60;;;6.50;99.90;;;7.26;100.00;96376.53;10421388;28;20643;-65
2024/03/11 01:22:15;;;;;;;5.10;4.70;;;6.50;99.90;;;7.20;100.00;96380.53;10420846;28;20688;-65
2024/03/11 01:27:19;;;;;;;5.07;4.67;;;6.50;99.90;;;7.18;100.00;96384.69;10423609;28;20233;-66
2024/03/11 01:32:24;;;;;;;4.60;4.30;;;6.40;99.90;;;7.09;100.00;96394.41;10418845;28;20387;-66
2024/03/11 01:37:27;;;;;;;4.70;4.33;;;6.40;99.90;;;7.08;100.00;96399.44;10421070;28;20243;-66
2024/03/11 01:42:30;;;;;;;5.20;4.83;;;6.40;99.90;;;6.98;100.00;96391.41;10417206;28;20719;-64
2024/03/11 01:47:38;;;;;;;5.60;5.10;;;6.30;99.90;;;7.07;100.00;96396.03;10419198;28;20237;-66
2024/03/11 01:52:46;;;;;;;5.20;4.80;;;6.40;99.90;;;7.19;100.00;96399.13;10420588;28;20230;-66
2024/03/11 01:57:51;;;;;;;5.07;4.70;;;6.40;99.90;;;7.07;100.00;96403.66;10416071;28;20236;-66
2024/03/11 02:02:56;;;;;;;5.37;4.97;;;6.30;99.90;;;7.00;100.00;96399.94;10421720;28;20340;-66
2024/03/11 02:08:02;;;;;;;4.93;4.63;;;6.20;99.90;;;6.93;100.00;96402.13;10421619;28;20229;-66
2024/03/11 02:13:06;;;;;;;5.60;5.20;;;6.20;99.90;;;6.91;100.00;96404.59;10419053;28;20240;-66
2024/03/11 02:18:11;;;;;;;5.67;5.17;;;6.20;99.90;;;6.88;100.00;96407.00;10417950;28;20624;-66
2024/03/11 02:23:16;;;;;;;5.60;5.10;;;6.10;99.90;;;6.81;100.00;96412.59;10424361;28;20232;-66
2024/03/11 02:28:19;;;;;;;4.80;4.50;;;6.10;99.90;;;6.72;100.00;96410.47;10434242;28;20244;-66
2024/03/11 02:33:22;;;;;;;5.40;5.00;;;6.00;99.90;;;6.66;100.00;96415.25;10420927;28;20256;-66
2024/03/11 02:38:27;;;;;;;5.13;4.60;;;6.00;99.90;;;6.60;100.00;96421.69;10419651;28;20229;-66
2024/03/11 02:43:30;;;;;;;4.40;4.00;;;5.90;99.90;;;6.52;100.00;96421.31;10418503;28;20221;-66
2024/03/11 02:48:35;;;;;;;3.97;3.73;;;5.80;99.90;;;6.45;100.00;96414.19;10418291;28;20225;-66
2024/03/11 02:53:40;;;;;;;3.93;3.63;;;5.70;99.90;;;6.29;100.00;96421.03;10417180;28;20217;-66
2024/03/11 02:58:44;;;;;;;3.53;3.33;;;5.50;99.90;;;6.18;100.00;96431.44;10433530;28;20256;-67
2024/03/11 03:03:47;;;;;;;3.87;3.30;;;5.40;99.90;;;6.11;100.00;96435.34;10415531;28;20371;-66
2024/03/11 03:08:52;;;;;;;3.57;3.37;;;5.40;99.90;;;6.04;100.00;96449.38;10426299;28;21012;-66
2024/03/11 03:13:55;;;;;;;4.40;4.00;;;5.30;99.90;;;5.98;100.00;96453.25;10417678;28;21984;-66
2024/03/11 03:18:58;;;;;;;3.10;2.90;;;5.20;99.90;;;5.77;100.00;96451.31;10417674;28;20248;-66
2024/03/11 03:24:03;;;;;;;3.07;2.87;;;5.10;99.90;;;5.77;100.00;96455.53;10419706;28;20374;-66
2024/03/11 03:29:06;;;;;;;2.53;2.40;;;5.10;99.90;;;5.60;100.00;96470.69;10435343;28;20295;-66
2024/03/11 03:34:10;;;;;;;3.20;3.00;;;4.90;99.90;;;5.61;100.00;96467.41;10426905;28;20248;-67
2024/03/11 03:39:14;;;;;;;3.37;3.17;;;4.90;99.90;;;5.62;100.00;96479.28;10423963;28;20262;-66
2024/03/11 03:44:18;;;;;;;3.33;3.03;;;4.90;99.90;;;5.49;100.00;96476.84;10425227;28;20298;-65
2024/03/11 03:49:21;;;;;;;2.70;2.60;;;4.70;99.90;;;5.28;100.00;96481.63;10426429;28;20704;-65
2024/03/11 03:54:27;;;;;;;3.17;2.97;;;4.60;99.90;;;5.16;100.00;96486.03;10424618;28;20522;-65
2024/03/11 03:59:33;;;;;;;2.50;2.40;;;4.50;99.90;;;5.12;100.00;96492.59;10438597;28;20225;-66
2024/03/11 04:04:39;;;;;;;2.90;2.80;;;4.50;99.90;;;5.05;100.00;96497.22;10424950;28;20221;-66
2024/03/11 04:09:44;;;;;;;2.70;2.50;;;4.40;99.90;;;5.17;100.00;96492.84;10427713;28;20225;-66
2024/03/11 04:14:47;;;;;;;2.70;2.60;;;4.40;99.90;;;5.14;100.00;96488.47;10426637;28;20724;-66
2024/03/11 04:19:50;;;;;;;2.57;2.43;;;4.40;99.90;;;4.98;100.00;96485.91;10420476;28;20225;-66
2024/03/11 04:24:55;;;;;;;2.80;2.70;;;4.30;99.90;;;4.74;100.00;96491.28;10428962;28;20282;-66
2024/03/11 04:29:59;;;;;;;2.80;2.70;;;4.10;99.90;;;4.77;100.00;96488.06;10434479;28;20235;-66
2024/03/11 04:35:04;;;;;;;3.03;2.83;;;4.10;99.90;;;4.75;100.00;96497.25;10421212;28;20224;-64
2024/03/11 04:40:12;;;;;;;2.67;2.53;;;4.00;99.90;;;4.58;100.00;96496.28;10426323;28;20229;-66
2024/03/11 04:45:17;;;;;;;2.70;2.60;;;3.90;99.90;;;4.54;100.00;96516.25;10427324;28;20236;-66
2024/03/11 04:50:24;;;;;;;3.20;3.00;;;3.80;99.90;;;4.38;100.00;96515.38;10431562;28;20247;-66
2024/03/11 04:55:31;;;;;;;2.80;2.70;;;3.70;99.90;;;4.23;100.00;96519.50;10411720;28;20229;-66
2024/03/11 05:00:34;;;;;;;3.10;2.80;;;3.60;99.90;;;4.20;100.00;96519.31;10415969;28;20377;-64
2024/03/11 05:05:40;;;;;;;2.67;2.50;;;3.50;99.90;;;4.19;100.00;96517.59;10416326;28;20532;-66
2024/03/11 05:10:45;;;;;;;4.00;3.60;;;3.50;99.90;;;4.08;100.00;96532.09;10414391;28;20569;-64
2024/03/11 05:15:48;;;;;;;4.03;3.70;;;3.40;99.90;;;4.05;100.00;96530.25;10412796;28;20260;-66
2024/03/11 05:20:52;;;;;;;3.77;3.57;;;3.40;99.90;;;3.97;100.00;96540.69;10416634;28;22040;-64
2024/03/11 05:25:56;;;;;;;7.87;5.87;;;3.30;99.90;;;3.92;100.00;96542.97;10416618;28;20231;-67
2024/03/11 05:31:00;;;;;;;4.90;4.40;;;3.30;99.90;;;3.93;100.00;96554.81;10426539;28;20238;-66
2024/03/11 05:36:03;;;;;;;3.23;3.03;;;3.30;99.90;;;3.80;100.00;96565.81;10435428;28;20715;-66
2024/03/11 05:41:09;;;;;;;5.00;4.17;;;3.20;99.90;;;3.87;100.00;96574.66;10434332;28;20232;-66
2024/03/11 05:46:12;;;;;;;3.67;3.37;;;3.20;99.90;;;3.66;100.00;96583.41;10435188;28;20710;-67
2024/03/11 05:51:16;;;;;;;8.80;7.43;;;3.00;99.90;;;3.73;100.00;96583.03;10436705;28;20229;-66
2024/03/11 05:56:22;;;;;;;8.20;6.57;;;3.00;99.90;;;3.57;100.00;96593.81;10436033;28;20335;-67
2024/03/11 06:01:25;;;;;;;5.40;4.90;;;2.90;99.90;;;3.45;100.00;96603.16;10431384;28;20664;-67
2024/03/11 06:06:28;;;;;;;2.80;2.70;;;2.80;99.90;;;3.34;100.00;96610.03;10431664;28;20229;-67
2024/03/11 06:11:34;;;;;;;3.10;2.87;;;2.70;99.90;;;3.44;100.00;96627.53;10435791;28;20236;-68
2024/03/11 06:16:37;;;;;;;4.03;3.73;;;2.80;99.90;;;3.55;100.00;96631.63;10432069;28;20586;-63
2024/03/11 06:21:42;;;;;;;2.60;2.50;;;2.90;99.90;;;3.60;100.00;96635.31;10448808;22;20704;-64
2024/03/11 06:26:48;;;;;;;2.97;2.80;;;2.90;99.90;;;4.12;100.00;96646.94;10431887;28;20608;-64
2024/03/11 06:31:51;;;;;;;3.00;2.80;;;3.40;99.90;;;4.62;100.00;96650.03;10432966;28;20288;-64
2024/03/11 06:36:55;;;;;;;4.60;3.67;;;3.90;99.90;;;5.26;100.00;96649.50;10432218;28;20251;-64
2024/03/11 06:42:00;;;;;;;3.27;3.07;;;4.40;99.90;;;5.59;100.00;96651.44;10430556;28;20260;-64
2024/03/11 06:47:04;;;;;;;3.07;2.87;;;4.70;99.90;;;5.70;100.00;96659.66;10432018;28;20287;-64
2024/03/11 06:52:09;;;;;;;3.57;3.37;;;4.80;99.90;;;6.27;100.00;96661.16;10428738;28;20237;-64
2024/03/11 06:57:13;;;;;;;3.53;3.23;;;5.10;99.90;;;7.28;99.62;96662.13;10432490;28;20298;-64
2024/03/11 07:02:20;;;;;;;3.07;2.87;;;5.70;99.90;;;7.60;96.50;96668.78;10434581;28;20237;-64
2024/03/11 07:07:25;;;;;;;3.10;2.90;;;6.10;99.90;;;7.89;97.54;96678.69;10442542;28;20731;-64
2024/03/11 07:12:30;;;;;;;4.03;3.53;;;6.80;99.90;;;8.05;93.93;96677.75;10440134;28;20318;-64
2024/03/11 07:17:34;;;;;;;3.07;2.87;;;6.90;99.90;;;8.22;93.86;96693.81;10441086;28;20534;-64
2024/03/11 07:22:38;;;;;;;3.43;3.13;;;7.10;99.90;;;8.41;92.17;96693.03;10440974;28;20310;-64
2024/03/11 07:27:42;;;;;;;3.40;3.10;;;7.20;99.90;;;8.67;92.38;96689.16;10440843;28;20307;-64
2024/03/11 07:32:46;;;;;;;3.90;3.57;;;7.50;99.90;;;8.89;92.37;96698.59;10440735;28;20398;-64
2024/03/11 07:37:49;;;;;;;3.63;3.43;;;7.80;99.90;;;8.75;93.52;96700.53;10436617;28;20737;-67
2024/03/11 07:42:54;;;;;;;3.80;3.60;;;7.80;99.90;;;9.31;90.77;96706.41;10438969;28;20286;-64
2024/03/11 07:47:57;;;;;;;4.80;4.40;;;8.30;99.90;;;9.72;88.86;96703.84;10438483;28;20728;-64
2024/03/11 07:53:00;;;;;;;4.05;3.65;;;8.80;99.90;;;9.91;88.39;96709.78;10439314;28;20767;-64
2024/03/11 07:58:06;;;;;;;5.07;4.47;;;8.90;99.90;;;10.04;89.57;96723.03;10436075;28;20228;-64
2024/03/11 08:03:10;;;;;;;6.68;4.85;;;9.10;99.90;;;10.34;89.32;96723.44;10438644;28;20232;-63
2024/03/11 08:08:13;;;;;;;5.18;4.70;;;9.50;99.90;;;10.68;88.54;96737.50;10437856;28;21159;-64
2024/03/11 08:13:18;;;;;;;3.70;3.35;;;9.90;99.90;;;11.05;84.85;96730.41;10438221;28;20272;-64
2024/03/11 08:18:21;;;;;;;3.97;3.67;;;10.40;99.90;;;11.43;84.92;96746.25;10439128;28;20229;-64
2024/03/11 08:23:24;;;;;;;4.35;3.67;;;10.80;99.90;;;11.86;85.66;96744.34;10438177;28;20228;-63
2024/03/11 08:28:30;;;;;;;4.53;4.13;;;11.20;99.90;;;12.14;84.88;96743.59;10436428;28;20225;-63
2024/03/11 08:33:34;;;;;;;4.13;3.83;;;11.60;99.90;;;12.73;81.13;96759.09;10436993;28;20225;-64
2024/03/11 08:38:39;;;;;;;3.80;3.50;;;12.00;99.90;;;12.38;79.52;96764.00;10436771;28;20236;-64
2024/03/11 08:43:44;;;;;;;3.40;3.20;;;11.50;99.90;;;12.51;75.04;96766.13;10438227;28;20216;-64
2024/03/11 08:48:48;;;;;;;4.28;3.88;;;11.50;99.90;;;12.50;77.90;96758.38;10437731;28;20221;-63
2024/03/11 08:53:52;;;;;;;5.18;4.25;;;11.70;99.90;;;12.76;79.42;96772.91;10436998;28;20229;-64
2024/03/11 08:58:56;;;;;;;3.70;3.40;;;11.90;99.90;;;12.40;76.48;96770.91;10437498;28;20228;-64
2024/03/11 09:04:00;;;;;;;2.13;2.03;;;11.30;99.90;;;11.75;75.71;96774.66;10436462;28;20442;-64
2024/03/11 09:09:04;;;;;;;1.92;1.77;;;11.00;99.90;;;12.16;72.38;96777.78;10437063;28;20225;-64
2024/03/11 09:14:10;;;;;;;1.80;1.70;;;11.40;99.90;;;12.33;70.52;96774.13;10436254;28;20264;-64
2024/03/11 09:19:14;;;;;;;1.60;1.50;;;11.60;99.90;;;12.79;67.25;96774.66;10436629;28;20231;-64
2024/03/11 09:24:19;;;;;;;1.75;1.65;;;12.10;99.90;;;12.95;64.65;96778.59;10434647;28;20232;-64
2024/03/11 09:29:24;;;;;;;1.77;1.67;;;12.20;99.90;;;13.15;66.24;96777.47;10434787;28;20314;-64
2024/03/11 09:34:29;;;;;;;1.50;1.40;;;12.50;99.90;;;13.52;61.79;96779.44;10435094;28;20314;-64
2024/03/11 09:39:32;;;;;;;1.48;1.35;;;12.90;99.90;;;13.71;63.30;96780.81;10433599;28;20233;-64
2024/03/11 09:44:36;;;;;;;1.60;1.50;;;13.10;99.90;;;14.02;60.41;96781.66;10434725;28;20235;-64
2024/03/11 09:49:39;;;;;;;2.00;1.65;;;13.50;99.90;;;14.35;61.16;96791.91;10434892;28;20239;-64
2024/03/11 09:54:44;;;;;;;1.80;1.58;;;13.80;99.90;;;14.49;58.74;96799.97;10435393;28;20645;-64
2024/03/11 09:59:49;;;;;;;1.70;1.60;;;13.80;99.90;;;14.69;59.21;96803.03;10434874;28;20237;-64
2024/03/11 10:04:54;;;;;;;1.90;1.80;;;14.10;99.90;;;14.95;57.34;96802.78;10434428;28;20279;-64
2024/03/11 10:09:58;;;;;;;2.33;1.48;;;14.20;99.90;;;14.83;56.70;96805.94;10435326;28;20707;-64
2024/03/11 10:15:03;;;;;;;1.30;1.25;;;14.00;99.90;;;15.05;55.01;96797.00;10433046;28;20233;-64
2024/03/11 10:20:14;;;;;;;1.73;1.40;;;14.40;99.90;;;15.27;53.69;96799.19;10430401;28;20239;-64
2024/03/11 10:25:27;;;;;;;1.40;1.30;;;14.50;99.90;;;15.22;54.35;96798.25;10434612;28;20636;-64
2024/03/11 10:30:32;;;;;;;1.70;1.23;;;14.60;99.90;;;15.47;52.07;96786.75;10431863;28;20244;-64
2024/03/11 10:35:35;;;;;;;1.77;1.30;;;14.80;98.70;;;15.38;52.98;96790.84;10434546;28;20225;-64
2024/03/11 10:40:39;;;;;;;1.30;1.20;;;14.70;98.60;;;15.33;52.87;96789.03;10433117;28;20253;-64
2024/03/11 10:45:43;;;;;;;1.98;1.40;;;14.70;99.20;;;15.13;51.41;96779.16;10434220;28;20359;-64
2024/03/11 10:50:47;;;;;;;1.10;1.10;;;14.60;97.20;;;15.33;50.45;96781.31;10430037;28;20237;-64
2024/03/11 10:55:55;;;;;;;1.50;1.48;;;14.80;96.80;;;15.28;50.58;96770.06;10431205;28;20299;-64
2024/03/11 11:01:00;;;;;;;1.75;1.23;;;14.70;96.80;;;15.46;48.58;96773.84;10430819;28;20764;-65
2024/03/11 11:06:09;;;;;;;1.08;1.08;;;14.80;94.90;;;15.19;50.30;96785.28;10431721;28;20798;-65
2024/03/11 11:11:17;;;;;;;1.00;0.88;;;14.40;95.90;;;14.81;52.20;96790.47;10433028;28;20431;-64
2024/03/11 11:16:25;;;;;;;1.10;1.10;;;13.90;97.70;;;14.58;52.45;96791.63;10429865;28;20239;-64
2024/03/11 11:21:31;;;;;;;1.30;1.20;;;13.70;98.40;;;14.42;53.04;96788.66;10430576;28;20331;-64
2024/03/11 11:26:42;;;;;;;1.70;1.60;;;13.50;98.10;;;14.40;53.29;96776.59;10433895;28;20227;-64
2024/03/11 11:32:01;;;;;;;1.42;1.27;;;13.60;99.00;;;14.63;51.97;96787.47;10431021;28;20240;-64
2024/03/11 11:37:06;;;;;;;1.30;1.20;;;13.90;97.70;;;14.09;51.06;96777.53;10429910;28;20303;-64
2024/03/11 11:42:34;;;;;;;1.38;1.27;;;13.30;97.10;;;13.69;53.88;96774.75;10431669;28;20240;-65
2024/03/11 11:47:40;;;;;;;1.50;1.40;;;12.80;98.70;;;13.45;54.50;96769.84;10434893;28;20235;-64
2024/03/11 11:52:43;;;;;;;1.42;1.33;;;12.60;99.90;;;13.49;56.63;96770.78;10439557;28;20736;-65
2024/03/11 11:57:47;;;;;;;1.75;1.38;;;12.60;99.90;;;13.61;55.94;96777.94;10440635;28;20217;-64
2024/03/11 12:02:53;;;;;;;1.50;1.20;;;12.70;99.90;;;13.54;54.42;96765.78;10438347;28;20239;-64
2024/03/11 12:07:56;;;;;;;1.20;1.10;;;12.90;98.80;;;13.58;54.71;96780.44;10439613;28;20881;-65
2024/03/11 12:12:59;;;;;;;1.20;1.10;;;12.90;98.50;;;13.57;52.77;96782.13;10438760;28;20217;-65
2024/03/11 12:18:05;;;;;;;1.33;1.30;;;12.80;97.10;;;13.84;52.10;96782.00;10440702;28;20229;-65
2024/03/11 12:23:09;;;;;;;1.27;1.27;;;13.00;97.60;;;14.14;51.03;96786.22;10410961;22;20231;-66
2024/03/11 12:28:15;;;;;;;1.33;1.23;;;13.20;97.20;;;14.14;51.39;96786.22;10358449;28;20229;-69
2024/03/11 12:33:21;;;;;;;1.30;1.30;;;13.40;97.00;;;14.20;50.67;96788.94;10369655;28;20226;-67
2024/03/11 12:38:25;;;;;;;1.25;1.25;;;13.50;95.80;;;14.21;51.09;96798.38;10355774;28;20254;-66
2024/03/11 12:43:31;;;;;;;2.20;1.65;;;13.40;96.30;;;14.17;50.22;96805.16;10367040;28;20232;-67
2024/03/11 12:48:35;;;;;;;1.50;1.40;;;13.40;96.00;;;14.43;49.31;96810.97;10397772;28;20295;-67
2024/03/11 12:53:39;;;;;;;0.93;0.93;;;13.60;95.50;;;14.52;49.53;96814.63;10363328;28;20227;-68
2024/03/11 12:58:42;;;;;;;1.88;1.20;;;13.80;95.30;;;14.69;50.23;96823.63;10354870;28;20364;-66
2024/03/11 13:03:47;;;;;;;1.27;1.17;;;13.70;95.90;;;14.80;49.44;96823.88;10386121;28;20321;-66
2024/03/11 13:08:51;;;;;;;1.20;1.10;;;13.70;96.30;;;14.87;50.22;96821.47;10372388;28;20225;-66
2024/03/11 13:13:55;;;;;;;1.15;1.15;;;13.90;96.40;;;14.83;49.56;96824.81;10369721;28;20233;-66
2024/03/11 13:19:00;;;;;;;1.17;1.17;;;13.80;95.60;;;14.65;50.28;96826.97;10370702;28;20651;-66
2024/03/11 13:24:11;;;;;;;1.65;1.20;;;13.70;96.30;;;14.63;50.37;96826.03;10370347;28;20757;-68
2024/03/11 13:29:15;;;;;;;1.33;1.30;;;13.60;96.50;;;14.52;51.94;96824.91;10352860;28;20223;-67
2024/03/11 13:34:21;;;;;;;1.45;1.17;;;13.50;97.60;;;14.58;51.12;96833.63;10369511;28;20221;-67
2024/03/11 13:39:34;;;;;;;1.60;1.30;;;13.60;96.70;;;14.74;50.96;96829.75;10353999;28;20241;-66
2024/03/11 13:44:37;;;;;;;1.40;1.10;;;13.60;97.40;;;14.70;50.24;96834.78;10375005;28;20233;-67
2024/03/11 13:49:44;;;;;;;0.90;0.90;;;13.60;96.80;;;14.75;50.92;96841.78;10379359;28;20709;-66
2024/03/11 13:54:47;;;;;;;2.00;1.33;;;13.60;97.20;;;14.66;50.71;96845.84;10394861;28;20697;-66
2024/03/11 13:59:51;;;;;;;2.28;1.00;;;13.60;96.80;;;14.49;52.02;96843.66;10379734;28;20222;-66
2024/03/11 14:04:55;;;;;;;1.20;1.10;;;13.50;98.30;;;14.64;50.70;96850.91;10370999;28;21176;-66
2024/03/11 14:09:58;;;;;;;1.88;1.05;;;13.50;97.10;;;14.47;50.73;96853.03;10372064;28;20253;-66
2024/03/11 14:15:02;;;;;;;1.27;1.17;;;13.50;96.60;;;14.38;52.41;96856.25;10346839;28;20226;-66
2024/03/11 14:20:16;;;;;;;1.20;1.20;;;13.40;98.00;;;14.18;51.20;96858.28;10368835;28;20249;-66
2024/03/11 14:25:22;;;;;;;1.25;1.08;;;13.30;96.50;;;14.08;50.81;96868.28;10367293;28;20233;-67
2024/03/11 14:30:30;;;;;;;1.02;0.93;;;13.30;96.70;;;13.93;52.30;96867.03;10352353;28;20241;-67
2024/03/11 14:35:42;;;;;;;1.50;1.13;;;13.10;97.50;;;14.02;52.95;96873.25;10384409;28;20647;-67
2024/03/11 14:40:45;;;;;;;1.10;1.00;;;13.20;97.80;;;14.00;53.80;96877.50;10372061;28;20743;-67
2024/03/11 14:45:48;;;;;;;1.52;0.93;;;13.20;99.00;;;13.97;53.84;96880.84;10359348;28;20616;-65
2024/03/11 14:50:54;;;;;;;1.08;1.00;;;13.10;98.70;;;13.94;53.35;96891.91;10349916;28;20789;-65
2024/03/11 14:55:58;;;;;;;1.00;1.00;;;13.10;97.90;;;13.93;54.04;96903.00;10347997;28;20242;-65
2024/03/11 15:01:02;;;;;;;1.20;1.13;;;13.00;99.00;;;14.04;54.33;96905.00;10349634;28;20230;-66
2024/03/11 15:06:10;;;;;;;1.10;1.10;;;13.00;99.40;;;13.94;55.09;96917.59;10368029;28;20225;-68
2024/03/11 15:11:16;;;;;;;1.60;1.20;;;12.90;99.90;;;13.86;55.68;96916.50;10384399;28;20292;-66
2024/03/11 15:16:22;;;;;;;1.50;1.40;;;12.70;99.90;;;13.65;56.15;96924.47;10350575;28;20257;-65
2024/03/11 15:21:27;;;;;;;1.20;1.20;;;12.70;99.90;;;13.85;54.92;96925.03;10354729;28;20222;-68
2024/03/11 15:26:31;;;;;;;1.42;1.30;;;12.70;99.90;;;13.56;58.70;96928.44;10393183;28;20234;-68
2024/03/11 15:31:34;;;;;;;1.05;1.05;;;12.60;99.90;;;13.23;62.61;96935.09;10378868;28;20309;-67
2024/03/11 15:36:40;;;;;;;1.92;1.48;;;12.10;99.90;;;12.96;66.32;96935.09;10357970;28;20229;-68
2024/03/11 15:41:45;;;;;;;1.33;1.23;;;12.00;99.90;;;12.74;69.38;96942.91;10398181;28;20720;-67
2024/03/11 15:46:48;;;;;;;1.33;1.23;;;11.70;99.90;;;12.83;67.03;96948.34;10359693;28;20313;-67
2024/03/11 15:51:54;;;;;;;1.20;1.20;;;11.80;99.90;;;12.59;67.48;96948.34;10376677;28;20361;-67
2024/03/11 15:56:58;;;;;;;1.23;1.23;;;11.60;99.90;;;12.47;65.05;96953.94;10374042;28;20229;-67
2024/03/11 16:02:05;;;;;;;1.42;1.33;;;11.50;99.90;;;12.45;65.15;96959.81;10393115;28;20279;-67
2024/03/11 16:07:10;;;;;;;1.83;1.73;;;11.40;99.90;;;12.38;64.84;96969.00;10389302;28;20360;-67
2024/03/11 16:12:14;;;;;;;1.20;1.20;;;11.30;99.90;;;12.10;65.13;96973.16;10390412;28;20234;-67
2024/03/11 16:17:17;;;;;;;2.08;1.98;;;11.10;99.90;;;11.94;66.52;96965.72;10352576;28;20637;-67
2024/03/11 16:22:21;;;;;;;2.20;2.10;;;11.00;99.90;;;11.79;67.36;96970.19;10343529;28;20321;-67
2024/03/11 16:27:24;;;;;;;1.85;1.75;;;10.80;99.90;;;11.65;68.45;96975.69;10349077;28;20336;-67
2024/03/11 16:32:28;;;;;;;4.18;3.80;;;10.70;99.90;;;11.43;68.98;96980.78;10336366;28;20237;-67
2024/03/11 16:37:32;;;;;;;4.68;4.28;;;10.50;99.90;;;11.23;69.47;96980.88;10335281;28;20250;-66
2024/03/11 16:42:35;;;;;;;2.72;2.53;;;10.40;99.90;;;11.18;70.17;96990.03;10352308;28;20271;-66
2024/03/11 16:47:42;;;;;;;2.13;2.03;;;10.30;99.90;;;11.01;70.97;96991.03;10382183;28;21729;-67
2024/03/11 16:52:48;;;;;;;2.25;2.15;;;10.20;99.90;;;10.86;72.29;97003.19;10369655;28;20253;-67
2024/03/11 16:57:52;;;;;;;1.80;1.70;;;10.00;99.90;;;10.75;72.83;97003.59;10349806;28;20239;-68
2024/03/11 17:02:56;;;;;;;2.13;2.00;;;9.90;99.90;;;10.51;73.56;97010.22;10364488;28;20243;-67
2024/03/11 17:08:02;;;;;;;2.03;1.90;;;9.60;99.90;;;10.34;75.01;97015.47;10357128;28;20217;-67
2024/03/11 17:13:06;;;;;;;2.58;2.38;;;9.40;99.90;;;10.12;76.52;97023.81;10395866;28;20268;-67
2024/03/11 17:18:11;;;;;;;2.28;2.10;;;9.20;99.90;;;10.03;76.88;97028.50;10383049;28;20241;-66
2024/03/11 17:23:22;;;;;;;1.90;1.80;;;9.20;99.90;;;9.94;78.23;97043.41;10393027;28;20308;-67
2024/03/11 17:28:26;;;;;;;1.92;1.83;;;9.00;99.90;;;9.76;78.91;97056.19;10378663;28;20300;-67
2024/03/11 17:33:31;;;;;;;4.00;3.70;;;8.90;99.90;;;9.59;81.02;97067.28;10379641;28;20234;-66
2024/03/11 17:38:35;;;;;;;5.22;4.72;;;8.70;99.90;;;9.36;81.13;97067.03;10355805;28;20223;-66
2024/03/11 17:43:39;;;;;;;9.05;8.15;;;8.40;99.90;;;9.13;83.74;97080.31;10381146;28;20808;-66
2024/03/11 17:48:43;;;;;;;9.73;8.88;;;8.20;99.90;;;8.94;84.56;97078.53;10361136;28;20257;-67
2024/03/11 17:53:48;;;;;;;7.18;6.50;;;8.10;99.90;;;8.81;85.28;97094.84;10376680;28;20219;-66
2024/03/11 17:58:51;;;;;;;7.18;6.57;;;7.90;99.90;;;8.63;86.29;97099.00;10378226;28;20242;-67
2024/03/11 18:03:55;;;;;;;6.13;5.63;;;7.70;99.90;;;8.51;87.32;97100.13;10363535;28;20317;-64
2024/03/11 18:09:00;;;;;;;3.77;3.47;;;7.60;99.90;;;8.39;87.69;97108.78;10379199;28;20613;-67
2024/03/11 18:14:03;;;;;;;2.47;2.30;;;7.50;99.90;;;8.30;87.72;97119.34;10386763;28;20225;-67
2024/03/11 18:19:07;;;;;;;7.87;4.67;;;7.40;99.90;;;8.23;88.03;97114.69;10391259;28;20336;-66
2024/03/11 18:24:12;;;;;;;4.60;4.20;;;7.30;99.90;;;8.04;88.52;97128.97;10350395;28;20369;-67
2024/03/11 18:29:19;;;;;;;4.50;4.10;;;7.20;99.90;;;7.95;88.15;97141.16;10434748;22;20449;-67
2024/03/11 18:34:22;;;;;;;3.47;2.93;;;7.10;99.90;;;7.93;88.54;97147.88;10427896;28;20711;-67
2024/03/11 18:39:28;;;;;;;3.23;2.90;;;7.10;99.90;;;7.72;90.23;97167.00;10407911;28;20325;-66
2024/03/11 18:44:31;;;;;;;3.27;2.97;;;6.90;99.90;;;7.59;91.43;97181.56;10398734;28;20304;-67
2024/03/11 18:49:34;;;;;;;3.10;2.87;;;6.80;99.90;;;7.51;91.80;97182.78;10399522;28;20992;-67
2024/03/11 18:54:41;;;;;;;4.43;4.13;;;6.70;99.90;;;7.48;91.35;97190.25;10402872;28;20724;-67
2024/03/11 18:59:45;;;;;;;4.90;4.50;;;6.60;99.90;;;7.37;93.08;97197.25;10402648;28;20605;-67
2024/03/11 19:04:51;;;;;;;3.40;3.20;;;6.60;99.90;;;7.46;93.94;97204.53;10402619;28;20584;-67
2024/03/11 19:09:55;;;;;;;3.50;3.30;;;6.70;99.90;;;7.56;94.05;97211.03;10402446;28;20312;-67
2024/03/11 19:14:59;;;;;;;4.00;3.70;;;6.80;99.90;;;7.67;93.46;97223.59;10399504;28;20618;-67
2024/03/11 19:20:07;;;;;;;4.77;4.40;;;6.80;99.90;;;7.65;94.29;97234.44;10390574;28;20230;-67
2024/03/11 19:25:17;;;;;;;4.83;4.43;;;6.80;99.90;;;7.73;94.97;97250.16;10392397;28;20252;-67
2024/03/11 19:30:27;;;;;;;5.07;4.60;;;6.90;99.90;;;7.72;93.34;97249.25;10391580;28;20247;-67
2024/03/11 19:35:31;;;;;;;3.70;3.40;;;6.90;99.90;;;7.64;93.69;97253.94;10392268;28;20299;-67
2024/03/11 19:40:57;;;;;;;3.93;3.63;;;6.80;99.90;;;7.59;93.39;97270.56;10391861;28;20306;-67
2024/03/11 19:46:53;;;;;;;3.30;3.00;;;6.80;99.90;;;7.65;93.94;97286.19;10395451;28;20237;-67
2024/03/11 19:53:00;;;;;;;2.70;2.50;;;6.90;99.90;;;7.67;94.20;97297.34;10395687;28;20221;-68
2024/03/11 19:58:53;;;;;;;7.60;6.90;;;6.90;99.90;;;7.74;95.35;97300.25;10430520;28;20225;-68
2024/03/11 20:04:18;;;;;;;8.63;7.77;;;6.90;99.90;;;7.76;94.67;97314.81;10434702;28;20297;-68
2024/03/11 20:10:18;;;;;;;10.57;9.47;;;6.90;99.90;;;7.52;94.04;97332.00;10436187;28;20324;-67
2024/03/11 20:15:37;;;;;;;4.97;4.47;;;6.70;99.90;;;7.41;94.58;97339.00;10430590;28;20266;-67
2024/03/11 20:21:35;;;;;;;4.00;3.70;;;6.60;99.90;;;7.25;94.65;97341.41;10439654;28;20236;-66
2024/03/11 20:26:46;;;;;;;4.57;4.20;;;6.40;99.90;;;7.20;95.65;97347.84;10441566;28;20637;-66
2024/03/11 20:32:00;;;;;;;3.67;3.37;;;6.40;99.90;;;7.20;96.33;97363.97;10438099;28;20299;-66
2024/03/11 20:37:03;;;;;;;3.87;3.50;;;6.40;99.90;;;7.19;96.65;97364.78;10434291;28;20760;-65
2024/03/11 20:42:10;;;;;;;3.63;3.43;;;6.40;99.90;;;7.18;97.17;97382.47;10442298;28;20287;-66
2024/03/11 20:47:15;;;;;;;3.20;3.00;;;6.40;99.90;;;7.14;98.03;97391.56;10440781;28;20312;-66
2024/03/11 20:52:18;;;;;;;4.50;4.20;;;6.30;99.90;;;7.24;97.22;97395.56;10429106;28;20752;-66
2024/03/11 20:57:21;;;;;;;4.47;3.83;;;6.40;99.90;;;7.11;96.79;97393.03;10423841;28;20775;-66
2024/03/11 21:02:26;;;;;;;4.87;4.47;;;6.30;99.90;;;7.12;96.47;97394.78;10427588;28;20320;-66
2024/03/11 21:07:29;;;;;;;5.03;4.63;;;6.30;99.90;;;7.07;96.68;97402.13;10420456;28;20225;-65
2024/03/11 21:12:32;;;;;;;6.87;6.37;;;6.20;99.90;;;6.96;97.86;97398.03;10425267;28;20217;-66
2024/03/11 21:17:41;;;;;;;5.03;4.63;;;6.10;99.90;;;6.95;97.37;97404.78;10421643;28;20233;-66
2024/03/11 21:22:46;;;;;;;5.03;4.63;;;6.10;99.90;;;6.86;96.88;97410.94;10428270;28;20229;-65